x

Southern Lake Huron (45149) Wave Buoy

1:00pm - Fri 19th Sep 2014 All times are CDT. -5 hours from GMT.

  • Sig Wave height 2.0ft
  • Peak Period 3s
  • Wind
    16mph, 20mph gusts
  • Air Temp 60°f
  • Sea Pressure 1022.5mb
  • Southern Lake Huron
  • Southern Lake Huron

More Historic Weather Station data

Upgrade to MSW Pro to gain access to the past 30 days of data for over 8000 Wavebouys and Weather Stations around the globe.

Join Pro

Comparision Forecast

View Surf forecast
   
Fri 09/19 1:00pm 2ft 3s 16 20 mph 1022.5mb 60f
12:00pm 2ft 4s 16 20 mph 1024.2mb 59f
11:00am 2.5ft 4s 16 18 mph 1024.6mb 57f
10:00am 2.5ft 4s 18 20 mph 1024.9mb 56f
9:00am 2.5ft 4s 16 20 mph 1025.7mb 55f
8:00am 2.5ft 4s 16 20 mph 1025.5mb 54f
7:00am 2.5ft 4s 16 20 mph 1025.2mb 53f
6:00am 2.5ft 4s 13 18 mph 1024.8mb 53f
5:00am 2.5ft 4s 16 18 mph 1024.5mb 53f
4:00am 2ft 3s 11 16 mph 1024.4mb 52f
3:00am 2ft 3s 13 16 mph 1024.3mb 53f
2:00am 2ft 4s 11 16 mph 1024.7mb 52f
1:00am 2.5ft 4s 11 13 mph 1024.4mb 52f
12:00am 2.5ft 4s 11 16 mph 1024.3mb 51f
Thu 09/18 11:00pm 2.5ft 5s 13 18 mph 1024.5mb 51f
10:00pm 2.5ft 4s 16 18 mph 1023.9mb 52f
9:00pm 2.5ft 5s 16 20 mph 1023.6mb 53f
8:00pm 2.5ft 4s 13 18 mph 1022.9mb 54f
7:00pm 2.5ft 5s 13 18 mph 1022.4mb 54f
6:00pm 2.5ft 5s 13 20 mph 1022.3mb 54f
5:00pm 2.5ft 5s 16 18 mph 1022.5mb 53f
4:00pm 3ft 5s 13 18 mph 1022.5mb 53f
3:00pm 3.5ft 5s 16 20 mph 1022.6mb 53f
2:00pm 3.5ft 5s 18 22 mph 1022.7mb 53f
1:00pm 3.5ft 5s 16 20 mph 1022.7mb 53f
12:00pm 3.5ft 5s 13 18 mph 1022.4mb 53f
11:00am 3.5ft 5s 13 18 mph 1021.5mb 54f
10:00am 3.5ft 5s 18 20 mph 1021.2mb 53f
8:00am 2.5ft 5s 13 18 mph 1019.9mb 55f
7:00am 3ft 5s 13 16 mph 1019.2mb 56f
6:00am 3.5ft 4s 16 20 mph 1018.5mb 57f
5:00am 3ft 4s 18 22 mph 1017.9mb 58f
4:00am 2.5ft 4s 18 22 mph 1017mb 58f
3:00am 2ft 3s 20 22 mph 1016.4mb 60f
2:00am 1.3ft 3s 16 20 mph 1016mb 61f
1:00am 1.3ft 2s 13 18 mph 1015.8mb 62f
12:00am 0.7ft 2s 11 13 mph 1015.4mb 63f
Wed 09/17 11:00pm 0.7ft 2s 11
mph
1015.5mb 63f
10:00pm 0.7ft 2s 9
mph
1015.3mb 63f
9:00pm 0.7ft 2s 9
mph
1014.9mb 63f
8:00pm 0.3ft 2s 7 9 mph 1014.9mb 63f
7:00pm 0.7ft 2s 7 9 mph 1014.7mb 63f
6:00pm 0.7ft 2s 7 9 mph 1014.7mb 63f
5:00pm 0.7ft 2s 7 9 mph 1014.7mb 63f
4:00pm 0.7ft 2s 7 9 mph 1015mb 62f
3:00pm 1ft 2s 9 11 mph 1015.1mb 62f
2:00pm 1ft 3s 9
mph
1015.2mb 61f
1:00pm 1ft 3s 9 11 mph 1015.6mb 60f
12:00pm 1.3ft 3s 9 11 mph 1015.8mb 60f
11:00am 1.6ft 3s 11 13 mph 1016.3mb 59f
10:00am 1.6ft 3s 13 16 mph 1016.5mb 59f
9:00am 1.6ft 3s 13 16 mph 1016.7mb 59f
8:00am 1.3ft 3s 13 16 mph 1016.9mb 58f
7:00am 1ft 4s 13
mph
1017mb 59f
6:00am 1ft 3s 7 9 mph 1017mb 58f
5:00am 1.3ft 3s 7 9 mph 1017mb 57f
4:00am 1.3ft 3s 7 9 mph 1017.1mb 58f
3:00am 1.6ft 3s 11 13 mph 1017.2mb 59f
2:00am 1.6ft 3s 11 13 mph 1017.3mb 59f
1:00am 1.6ft 3s 13 16 mph 1017.3mb 60f
12:00am 1.3ft 3s 11 13 mph 1017.5mb 60f
Tue 09/16 11:00pm 1.3ft 3s 13 18 mph 1017.7mb 61f
10:00pm 1.6ft 2s 11 13 mph 1017.7mb 61f
9:00pm 1.6ft 3s 11 13 mph 1017.8mb 62f
8:00pm 1.3ft 3s 9 11 mph 1017.9mb 62f
7:00pm 1.3ft 4s 13 16 mph 1017.8mb 62f
6:00pm 1ft 5s 11 13 mph 1017.9mb 62f
5:00pm 1.3ft 5s 7 9 mph 1017.9mb 61f
4:00pm 1.3ft 4s 4 7 mph 1018.3mb 60f
3:00pm 1.3ft 5s 4 7 mph 1018.8mb 59f
2:00pm 1.6ft 4s 4 7 mph 1019.2mb 59f
1:00pm 1.6ft 4s 4 9 mph 1019.7mb 58f
12:00pm 1.6ft 5s 9 11 mph 1020mb 58f
11:00am 2ft 4s 9 11 mph 1020.3mb 58f
10:00am 2ft 4s 9 13 mph 1020.7mb 58f
9:00am 2ft 4s 9
mph
1020.7mb 58f
8:00am 2.5ft 4s 11 13 mph 1020.4mb 58f
7:00am 2.5ft 4s 13 18 mph 1020.4mb 58f
6:00am 2.5ft 4s 13 18 mph 1019.8mb 58f
5:00am 2.5ft 3s 13 18 mph 1019.3mb 58f
4:00am 2ft 4s 13 18 mph 1019mb 59f
3:00am 1.6ft 3s 13 18 mph 1018.7mb 59f
2:00am 1.3ft 3s 13 18 mph 1018.4mb 59f
1:00am 1.3ft 4s 11 16 mph 1018.3mb 58f
12:00am 1.6ft 3s 11 13 mph 1018.3mb 58f
Mon 09/15 11:00pm 1.6ft 3s 13 16 mph 1018.5mb 58f
10:00pm 1.6ft 4s 11 16 mph 1018.7mb 58f
9:00pm 1.6ft 3s 11 16 mph 1018.6mb 58f